WZZ1453 LIME-LBSF
Flight info
| Callsign | WZZ1453 |
|---|---|
| Flight time | 1h 41m |
| Altitude | 19000 |
| Route | OSKOR L615 NOBMI/N0445F350 DCT LAPAB DCT BABAG DCT RUGOG DCT RUDIK DCT OKSIG DCT YULHU DCT VEBAR DCT NISVA |
| Aircraft | A320/M-SDE3FGHIRWY/LB1 |
Departure
| Time | 2026-05-04 18:10 |
|---|---|
| Airport | Il Caravaggio International Airport (LIME) |
Arrival
| Time | 2026-05-04 19:51 |
|---|---|
| Airport | Sofia Airport (LBSF) |
| Time | Latitude | Longitude | Altitude | Speed | Heading |
|---|---|---|---|---|---|
| 2026-05-04 17:53 | 45.66650 | 9.69925 | 791 ft | 0 kts | 193° |
| 2026-05-04 18:02 | 45.66658 | 9.69928 | 790 ft | 3 kts | 191° |
| 2026-05-04 18:02 | 45.66675 | 9.69933 | 790 ft | 3 kts | 191° |
| 2026-05-04 18:02 | 45.66692 | 9.69935 | 790 ft | 2 kts | 185° |
| 2026-05-04 18:03 | 45.66709 | 9.69938 | 790 ft | 2 kts | 187° |
| 2026-05-04 18:03 | 45.66726 | 9.69941 | 791 ft | 2 kts | 187° |
| 2026-05-04 18:03 | 45.66743 | 9.69945 | 791 ft | 2 kts | 184° |
| 2026-05-04 18:03 | 45.66758 | 9.69939 | 791 ft | 2 kts | 117° |
| 2026-05-04 18:04 | 45.66757 | 9.69942 | 791 ft | 1 kts | 117° |
| 2026-05-04 18:04 | 45.66753 | 9.69956 | 791 ft | 2 kts | 112° |
| 2026-05-04 18:04 | 45.66744 | 9.69999 | 790 ft | 1 kts | 105° |
| 2026-05-04 18:05 | 45.66743 | 9.70006 | 790 ft | 2 kts | 105° |
| 2026-05-04 18:05 | 45.66741 | 9.70016 | 790 ft | 0 kts | 105° |
| 2026-05-04 18:05 | 45.66739 | 9.70024 | 790 ft | 4 kts | 105° |
| 2026-05-04 18:05 | 45.66737 | 9.70039 | 790 ft | 2 kts | 105° |
| 2026-05-04 18:06 | 45.66702 | 9.70218 | 789 ft | 17 kts | 105° |
| 2026-05-04 18:06 | 45.66662 | 9.70440 | 787 ft | 29 kts | 104° |
| 2026-05-04 18:06 | 45.66605 | 9.70752 | 785 ft | 37 kts | 105° |
| 2026-05-04 18:07 | 45.66539 | 9.71094 | 783 ft | 43 kts | 107° |
| 2026-05-04 18:07 | 45.66472 | 9.71381 | 781 ft | 17 kts | 108° |
| 2026-05-04 18:07 | 45.66442 | 9.71558 | 782 ft | 19 kts | 99° |
| 2026-05-04 18:07 | 45.66465 | 9.71754 | 778 ft | 21 kts | 74° |
| 2026-05-04 18:08 | 45.66455 | 9.71975 | 775 ft | 24 kts | 102° |
| 2026-05-04 18:08 | 45.66417 | 9.72175 | 774 ft | 10 kts | 105° |
| 2026-05-04 18:08 | 45.66397 | 9.72288 | 774 ft | 16 kts | 104° |
| 2026-05-04 18:08 | 45.66408 | 9.72460 | 773 ft | 21 kts | 14° |
| 2026-05-04 18:09 | 45.66483 | 9.72320 | 774 ft | 0 kts | 285° |
| 2026-05-04 18:09 | 45.66579 | 9.71806 | 778 ft | 82 kts | 284° |
| 2026-05-04 18:10 | 45.66771 | 9.70774 | 786 ft | 131 kts | 285° |
| 2026-05-04 18:10 | 45.67034 | 9.69344 | 930 ft | 158 kts | 284° |
| 2026-05-04 18:10 | 45.67159 | 9.67814 | 1480 ft | 160 kts | 258° |
| 2026-05-04 18:10 | 45.66691 | 9.66358 | 2041 ft | 165 kts | 231° |
| 2026-05-04 18:11 | 45.65842 | 9.65166 | 2448 ft | 180 kts | 228° |
| 2026-05-04 18:11 | 45.64959 | 9.63830 | 2915 ft | 187 kts | 229° |
| 2026-05-04 18:11 | 45.64046 | 9.62433 | 3456 ft | 197 kts | 227° |
| 2026-05-04 18:11 | 45.63507 | 9.61620 | 3773 ft | 202 kts | 227° |
| 2026-05-04 18:12 | 45.62828 | 9.60593 | 4184 ft | 206 kts | 226° |
| 2026-05-04 18:12 | 45.62147 | 9.59600 | 4716 ft | 216 kts | 222° |
| 2026-05-04 18:12 | 45.60937 | 9.58336 | 5781 ft | 222 kts | 200° |
| 2026-05-04 18:12 | 45.59308 | 9.58080 | 6067 ft | 260 kts | 165° |
| 2026-05-04 18:13 | 45.57798 | 9.59451 | 6170 ft | 265 kts | 128° |
| 2026-05-04 18:13 | 45.57097 | 9.61864 | 6079 ft | 268 kts | 95° |
| 2026-05-04 18:13 | 45.57845 | 9.67080 | 5927 ft | 270 kts | 82° |
| 2026-05-04 18:14 | 45.58090 | 9.69744 | 5998 ft | 271 kts | 85° |
| 2026-05-04 18:14 | 45.58282 | 9.72519 | 6011 ft | 293 kts | 86° |
| 2026-05-04 18:14 | 45.58494 | 9.75576 | 6008 ft | 327 kts | 85° |
| 2026-05-04 18:15 | 45.59064 | 9.82440 | 6012 ft | 357 kts | 83° |
| 2026-05-04 18:15 | 45.59757 | 9.89466 | 6017 ft | 358 kts | 83° |
| 2026-05-04 18:15 | 45.60111 | 9.92982 | 6017 ft | 358 kts | 83° |
| 2026-05-04 18:16 | 45.60463 | 9.96492 | 6021 ft | 358 kts | 83° |
| 2026-05-04 18:16 | 45.60811 | 10.00012 | 6053 ft | 359 kts | 83° |
| 2026-05-04 18:16 | 45.61160 | 10.03572 | 6687 ft | 364 kts | 83° |
| 2026-05-04 18:17 | 45.61860 | 10.10773 | 8114 ft | 369 kts | 84° |
| 2026-05-04 18:17 | 45.62211 | 10.14416 | 8798 ft | 373 kts | 84° |
| 2026-05-04 18:17 | 45.62915 | 10.21785 | 10132 ft | 381 kts | 84° |
| 2026-05-04 18:18 | 45.63273 | 10.25570 | 10666 ft | 387 kts | 84° |
| 2026-05-04 18:18 | 45.63637 | 10.29414 | 11211 ft | 392 kts | 84° |
| 2026-05-04 18:18 | 45.64003 | 10.33294 | 11810 ft | 396 kts | 84° |
| 2026-05-04 18:18 | 45.64372 | 10.37220 | 12386 ft | 400 kts | 84° |
| 2026-05-04 18:19 | 45.64833 | 10.45217 | 13511 ft | 407 kts | 92° |
| 2026-05-04 18:19 | 45.64814 | 10.49292 | 14060 ft | 411 kts | 92° |
| 2026-05-04 18:19 | 45.64607 | 10.53372 | 14538 ft | 414 kts | 98° |
| 2026-05-04 18:20 | 45.64297 | 10.57485 | 15048 ft | 418 kts | 98° |
| 2026-05-04 18:20 | 45.63981 | 10.61639 | 15535 ft | 421 kts | 98° |
| 2026-05-04 18:20 | 45.63667 | 10.65800 | 16118 ft | 422 kts | 98° |
| 2026-05-04 18:20 | 45.63350 | 10.69982 | 16601 ft | 425 kts | 98° |
| 2026-05-04 18:21 | 45.63031 | 10.74147 | 17069 ft | 429 kts | 97° |
| 2026-05-04 18:21 | 45.62705 | 10.78418 | 17543 ft | 434 kts | 97° |
| 2026-05-04 18:21 | 45.62376 | 10.82710 | 18006 ft | 438 kts | 97° |
| 2026-05-04 18:21 | 45.62039 | 10.87057 | 18440 ft | 442 kts | 97° |
| 2026-05-04 18:22 | 45.61694 | 10.91490 | 18862 ft | 445 kts | 97° |
| 2026-05-04 18:22 | 45.61354 | 10.95844 | 19300 ft | 448 kts | 97° |
| 2026-05-04 18:22 | 45.61006 | 11.00275 | 19741 ft | 450 kts | 97° |
| 2026-05-04 18:22 | 45.60654 | 11.04740 | 20160 ft | 454 kts | 97° |
| 2026-05-04 18:23 | 45.60299 | 11.09222 | 20581 ft | 456 kts | 97° |
| 2026-05-04 18:23 | 45.59941 | 11.13739 | 20992 ft | 458 kts | 97° |
| 2026-05-04 18:23 | 45.59578 | 11.18262 | 21385 ft | 460 kts | 97° |
| 2026-05-04 18:23 | 45.59209 | 11.22819 | 21769 ft | 462 kts | 97° |
| 2026-05-04 18:24 | 45.58837 | 11.27389 | 22150 ft | 465 kts | 98° |
| 2026-05-04 18:24 | 45.58462 | 11.31978 | 22508 ft | 467 kts | 98° |
| 2026-05-04 18:24 | 45.58088 | 11.36588 | 22870 ft | 469 kts | 98° |
| 2026-05-04 18:24 | 45.57711 | 11.41217 | 23222 ft | 471 kts | 98° |
| 2026-05-04 18:25 | 45.57326 | 11.45872 | 23581 ft | 473 kts | 98° |
| 2026-05-04 18:25 | 45.56937 | 11.50533 | 23874 ft | 475 kts | 98° |
| 2026-05-04 18:25 | 45.56542 | 11.55225 | 24168 ft | 477 kts | 98° |
| 2026-05-04 18:25 | 45.56146 | 11.59917 | 24468 ft | 478 kts | 98° |
| 2026-05-04 18:26 | 45.55748 | 11.64641 | 24774 ft | 480 kts | 98° |
| 2026-05-04 18:26 | 45.55345 | 11.69389 | 25057 ft | 482 kts | 98° |
| 2026-05-04 18:26 | 45.54944 | 11.74099 | 25348 ft | 484 kts | 98° |
| 2026-05-04 18:26 | 45.54533 | 11.78872 | 25629 ft | 486 kts | 98° |
| 2026-05-04 18:27 | 45.54119 | 11.83670 | 25924 ft | 488 kts | 98° |
| 2026-05-04 18:27 | 45.53703 | 11.88472 | 26209 ft | 490 kts | 98° |
| 2026-05-04 18:27 | 45.53282 | 11.93304 | 26570 ft | 490 kts | 98° |
| 2026-05-04 18:27 | 45.52838 | 11.98319 | 27027 ft | 488 kts | 99° |
| 2026-05-04 18:28 | 45.52372 | 12.02900 | 27440 ft | 487 kts | 100° |
| 2026-05-04 18:28 | 45.51818 | 12.07687 | 27893 ft | 486 kts | 101° |
| 2026-05-04 18:28 | 45.51228 | 12.12389 | 28341 ft | 484 kts | 102° |
| 2026-05-04 18:28 | 45.50620 | 12.17108 | 28792 ft | 483 kts | 102° |
| 2026-05-04 18:29 | 45.50020 | 12.21801 | 29235 ft | 482 kts | 102° |
| 2026-05-04 18:29 | 45.49431 | 12.26499 | 29700 ft | 481 kts | 102° |
| 2026-05-04 18:29 | 45.48859 | 12.31187 | 30165 ft | 479 kts | 102° |
| 2026-05-04 18:29 | 45.48298 | 12.35863 | 30544 ft | 479 kts | 102° |
| 2026-05-04 18:30 | 45.47173 | 12.45231 | 31212 ft | 480 kts | 102° |
| 2026-05-04 18:30 | 45.46603 | 12.49909 | 31528 ft | 480 kts | 102° |
| 2026-05-04 18:30 | 45.46024 | 12.54603 | 31838 ft | 481 kts | 102° |
| 2026-05-04 18:31 | 45.45441 | 12.59305 | 32150 ft | 482 kts | 101° |
| 2026-05-04 18:31 | 45.44856 | 12.64006 | 32478 ft | 483 kts | 101° |
| 2026-05-04 18:31 | 45.44270 | 12.68712 | 32808 ft | 483 kts | 101° |
| 2026-05-04 18:31 | 45.43681 | 12.73427 | 33137 ft | 484 kts | 101° |
| 2026-05-04 18:32 | 45.43092 | 12.78138 | 33466 ft | 484 kts | 101° |
| 2026-05-04 18:32 | 45.42499 | 12.82873 | 33801 ft | 485 kts | 101° |
| 2026-05-04 18:32 | 45.41906 | 12.87597 | 34123 ft | 485 kts | 101° |
| 2026-05-04 18:32 | 45.41311 | 12.92326 | 34422 ft | 485 kts | 101° |
| 2026-05-04 18:33 | 45.40712 | 12.97045 | 34746 ft | 485 kts | 101° |
| 2026-05-04 18:33 | 45.40107 | 13.01768 | 34997 ft | 485 kts | 101° |
| 2026-05-04 18:33 | 45.39507 | 13.06431 | 35062 ft | 485 kts | 101° |
| 2026-05-04 18:34 | 45.38564 | 13.15916 | 35067 ft | 485 kts | 93° |
| 2026-05-04 18:34 | 45.38183 | 13.25491 | 35072 ft | 485 kts | 94° |
| 2026-05-04 18:35 | 45.37783 | 13.35067 | 35078 ft | 484 kts | 94° |
| 2026-05-04 18:35 | 45.37573 | 13.39876 | 33159 ft | 501 kts | 94° |
| 2026-05-04 18:35 | 45.37309 | 13.45031 | 32098 ft | 499 kts | 94° |
| 2026-05-04 18:35 | 45.37070 | 13.49608 | 34269 ft | 456 kts | 95° |
| 2026-05-04 18:36 | 45.36896 | 13.54150 | 34279 ft | 463 kts | 92° |
| 2026-05-04 18:36 | 45.36579 | 13.63422 | 34502 ft | 475 kts | 94° |
| 2026-05-04 18:36 | 45.36373 | 13.68134 | 34629 ft | 479 kts | 95° |
| 2026-05-04 18:37 | 45.36148 | 13.72855 | 34908 ft | 480 kts | 95° |
| 2026-05-04 18:37 | 45.35917 | 13.77597 | 35059 ft | 481 kts | 95° |
| 2026-05-04 18:37 | 45.35689 | 13.82351 | 35088 ft | 481 kts | 95° |
| 2026-05-04 18:38 | 45.35241 | 13.91820 | 35094 ft | 480 kts | 95° |
| 2026-05-04 18:38 | 45.34791 | 14.01306 | 35095 ft | 480 kts | 95° |
| 2026-05-04 18:39 | 45.34335 | 14.10773 | 35100 ft | 480 kts | 95° |
| 2026-05-04 18:39 | 45.33870 | 14.20224 | 35104 ft | 479 kts | 95° |
| 2026-05-04 18:40 | 45.33396 | 14.29676 | 35107 ft | 479 kts | 95° |
| 2026-05-04 18:40 | 45.32921 | 14.39116 | 35106 ft | 474 kts | 95° |
| 2026-05-04 18:40 | 45.32683 | 14.43716 | 35108 ft | 460 kts | 95° |
| 2026-05-04 18:41 | 45.32449 | 14.48211 | 35108 ft | 453 kts | 95° |
| 2026-05-04 18:41 | 45.31979 | 14.57101 | 35112 ft | 451 kts | 95° |
| 2026-05-04 18:42 | 45.31502 | 14.65980 | 35110 ft | 450 kts | 95° |
| 2026-05-04 18:42 | 45.31025 | 14.74789 | 35108 ft | 450 kts | 95° |
| 2026-05-04 18:43 | 45.30542 | 14.83649 | 35101 ft | 450 kts | 95° |
| 2026-05-04 18:43 | 45.30053 | 14.92510 | 35099 ft | 450 kts | 95° |
| 2026-05-04 18:44 | 45.29553 | 15.01373 | 35084 ft | 450 kts | 95° |
| 2026-05-04 18:44 | 45.29044 | 15.10222 | 35085 ft | 450 kts | 95° |
| 2026-05-04 18:45 | 45.28524 | 15.19082 | 35079 ft | 450 kts | 95° |
| 2026-05-04 18:45 | 45.27980 | 15.27946 | 35080 ft | 451 kts | 98° |
| 2026-05-04 18:46 | 45.26356 | 15.36496 | 35076 ft | 449 kts | 112° |
| 2026-05-04 18:46 | 45.24057 | 15.44727 | 35074 ft | 449 kts | 112° |
| 2026-05-04 18:47 | 45.21753 | 15.52964 | 35075 ft | 449 kts | 112° |
| 2026-05-04 18:47 | 45.19441 | 15.61201 | 35069 ft | 449 kts | 112° |
| 2026-05-04 18:48 | 45.17119 | 15.69415 | 35071 ft | 449 kts | 112° |
| 2026-05-04 18:48 | 45.14799 | 15.77614 | 35074 ft | 448 kts | 112° |
| 2026-05-04 18:49 | 45.12472 | 15.85823 | 35067 ft | 448 kts | 112° |
| 2026-05-04 18:49 | 45.10163 | 15.93956 | 35074 ft | 448 kts | 112° |
| 2026-05-04 18:50 | 45.07828 | 16.02132 | 35071 ft | 447 kts | 112° |
| 2026-05-04 18:50 | 45.06265 | 16.07583 | 35072 ft | 447 kts | 112° |
| 2026-05-04 18:52 | 44.98552 | 16.34785 | 35069 ft | 446 kts | 109° |
| 2026-05-04 18:52 | 44.96674 | 16.43135 | 35054 ft | 447 kts | 106° |
| 2026-05-04 18:53 | 44.94898 | 16.51549 | 35050 ft | 448 kts | 107° |
| 2026-05-04 18:53 | 44.93032 | 16.59941 | 35053 ft | 448 kts | 108° |
| 2026-05-04 18:54 | 44.91101 | 16.68297 | 35065 ft | 448 kts | 107° |
| 2026-05-04 18:54 | 44.89165 | 16.76640 | 35066 ft | 448 kts | 107° |
| 2026-05-04 18:55 | 44.87254 | 16.84927 | 35065 ft | 447 kts | 107° |
| 2026-05-04 18:55 | 44.84372 | 16.97425 | 35057 ft | 447 kts | 107° |
| 2026-05-04 18:56 | 44.81928 | 17.05553 | 35047 ft | 448 kts | 115° |
| 2026-05-04 18:56 | 44.79259 | 17.13422 | 35041 ft | 448 kts | 114° |
| 2026-05-04 18:57 | 44.76570 | 17.21344 | 35040 ft | 448 kts | 115° |
| 2026-05-04 18:57 | 44.73870 | 17.29249 | 35042 ft | 449 kts | 115° |
| 2026-05-04 18:58 | 44.71162 | 17.37164 | 35050 ft | 449 kts | 114° |
| 2026-05-04 18:58 | 44.68458 | 17.45067 | 35056 ft | 449 kts | 114° |
| 2026-05-04 18:59 | 44.66203 | 17.51633 | 35060 ft | 449 kts | 115° |
| 2026-05-04 18:59 | 44.63483 | 17.59516 | 35072 ft | 449 kts | 115° |
| 2026-05-04 19:00 | 44.60754 | 17.67411 | 35074 ft | 449 kts | 114° |
| 2026-05-04 19:00 | 44.58025 | 17.75286 | 35073 ft | 449 kts | 115° |
| 2026-05-04 19:01 | 44.55281 | 17.83156 | 35066 ft | 449 kts | 115° |
| 2026-05-04 19:01 | 44.52533 | 17.91023 | 35063 ft | 449 kts | 115° |
| 2026-05-04 19:02 | 44.49782 | 17.98884 | 35072 ft | 450 kts | 114° |
| 2026-05-04 19:02 | 44.47025 | 18.06749 | 35072 ft | 450 kts | 114° |
| 2026-05-04 19:03 | 44.44260 | 18.14613 | 35070 ft | 450 kts | 115° |
| 2026-05-04 19:03 | 44.41490 | 18.22460 | 35070 ft | 450 kts | 115° |
| 2026-05-04 19:04 | 44.38707 | 18.30311 | 35075 ft | 450 kts | 114° |
| 2026-05-04 19:04 | 44.35944 | 18.38103 | 35072 ft | 451 kts | 114° |
| 2026-05-04 19:05 | 44.33140 | 18.46000 | 35075 ft | 451 kts | 115° |
| 2026-05-04 19:05 | 44.30357 | 18.53845 | 35073 ft | 450 kts | 112° |
| 2026-05-04 19:06 | 44.28202 | 18.61959 | 35082 ft | 449 kts | 107° |
| 2026-05-04 19:06 | 44.26094 | 18.70165 | 35085 ft | 449 kts | 107° |
| 2026-05-04 19:07 | 44.23987 | 18.78363 | 35085 ft | 449 kts | 108° |
| 2026-05-04 19:07 | 44.21873 | 18.86555 | 35085 ft | 449 kts | 108° |
| 2026-05-04 19:08 | 44.19751 | 18.94737 | 35100 ft | 449 kts | 108° |
| 2026-05-04 19:08 | 44.17623 | 19.02902 | 35087 ft | 448 kts | 108° |
| 2026-05-04 19:09 | 44.15506 | 19.11069 | 35093 ft | 448 kts | 107° |
| 2026-05-04 19:09 | 44.13350 | 19.19211 | 35085 ft | 448 kts | 109° |
| 2026-05-04 19:10 | 44.10984 | 19.27244 | 35108 ft | 449 kts | 111° |
| 2026-05-04 19:10 | 44.08518 | 19.35219 | 35108 ft | 449 kts | 111° |
| 2026-05-04 19:11 | 44.06067 | 19.43192 | 35098 ft | 448 kts | 111° |
| 2026-05-04 19:11 | 44.03646 | 19.51174 | 35106 ft | 448 kts | 110° |
| 2026-05-04 19:12 | 44.00024 | 19.63140 | 35122 ft | 447 kts | 110° |
| 2026-05-04 19:13 | 43.97596 | 19.71074 | 35114 ft | 446 kts | 110° |
| 2026-05-04 19:13 | 43.95163 | 19.78994 | 35116 ft | 446 kts | 110° |
| 2026-05-04 19:14 | 43.92727 | 19.86915 | 35114 ft | 445 kts | 110° |
| 2026-05-04 19:14 | 43.90295 | 19.94806 | 35118 ft | 445 kts | 110° |
| 2026-05-04 19:15 | 43.87856 | 20.02690 | 35125 ft | 444 kts | 110° |
| 2026-05-04 19:15 | 43.85413 | 20.10548 | 35109 ft | 444 kts | 110° |
| 2026-05-04 19:16 | 43.82962 | 20.18401 | 35112 ft | 444 kts | 110° |
| 2026-05-04 19:16 | 43.80508 | 20.26246 | 35130 ft | 443 kts | 110° |
| 2026-05-04 19:17 | 43.78074 | 20.34022 | 35130 ft | 443 kts | 110° |
| 2026-05-04 19:17 | 43.75619 | 20.41827 | 35135 ft | 443 kts | 110° |
| 2026-05-04 19:18 | 43.73165 | 20.49623 | 35127 ft | 442 kts | 110° |
| 2026-05-04 19:18 | 43.70700 | 20.57415 | 35135 ft | 442 kts | 110° |
| 2026-05-04 19:19 | 43.68233 | 20.65202 | 35127 ft | 442 kts | 110° |
| 2026-05-04 19:19 | 43.65760 | 20.72984 | 35119 ft | 443 kts | 110° |
| 2026-05-04 19:20 | 43.63276 | 20.80769 | 35113 ft | 443 kts | 110° |
| 2026-05-04 19:20 | 43.60785 | 20.88562 | 35118 ft | 444 kts | 110° |
| 2026-05-04 19:21 | 43.58285 | 20.96365 | 35111 ft | 445 kts | 110° |
| 2026-05-04 19:21 | 43.55766 | 21.04181 | 35103 ft | 446 kts | 110° |
| 2026-05-04 19:22 | 43.53245 | 21.11980 | 35105 ft | 446 kts | 110° |
| 2026-05-04 19:22 | 43.50716 | 21.19790 | 35127 ft | 446 kts | 111° |
| 2026-05-04 19:23 | 43.48193 | 21.27550 | 35117 ft | 446 kts | 111° |
| 2026-05-04 19:23 | 43.45661 | 21.35332 | 34996 ft | 446 kts | 111° |
| 2026-05-04 19:23 | 43.44394 | 21.39216 | 34557 ft | 445 kts | 111° |
| 2026-05-04 19:24 | 43.43125 | 21.43097 | 34124 ft | 444 kts | 110° |
| 2026-05-04 19:24 | 43.41856 | 21.46973 | 33648 ft | 444 kts | 111° |
| 2026-05-04 19:24 | 43.40590 | 21.50842 | 33167 ft | 443 kts | 111° |
| 2026-05-04 19:24 | 43.39326 | 21.54704 | 32681 ft | 443 kts | 111° |
| 2026-05-04 19:25 | 43.38056 | 21.58576 | 32228 ft | 444 kts | 111° |
| 2026-05-04 19:25 | 43.36785 | 21.62441 | 31768 ft | 443 kts | 112° |
| 2026-05-04 19:25 | 43.35519 | 21.66277 | 31316 ft | 440 kts | 112° |
| 2026-05-04 19:25 | 43.34254 | 21.70101 | 30869 ft | 437 kts | 112° |
| 2026-05-04 19:26 | 43.33005 | 21.73880 | 30428 ft | 434 kts | 112° |
| 2026-05-04 19:26 | 43.31762 | 21.77642 | 29965 ft | 430 kts | 112° |
| 2026-05-04 19:26 | 43.30531 | 21.81368 | 29442 ft | 427 kts | 112° |
| 2026-05-04 19:26 | 43.29306 | 21.85061 | 28954 ft | 424 kts | 112° |
| 2026-05-04 19:27 | 43.28087 | 21.88727 | 28463 ft | 420 kts | 112° |
| 2026-05-04 19:27 | 43.26874 | 21.92359 | 27981 ft | 417 kts | 112° |
| 2026-05-04 19:27 | 43.25669 | 21.95961 | 27507 ft | 414 kts | 112° |
| 2026-05-04 19:27 | 43.24473 | 21.99537 | 27030 ft | 411 kts | 112° |
| 2026-05-04 19:28 | 43.23286 | 22.03086 | 26575 ft | 408 kts | 112° |
| 2026-05-04 19:28 | 43.22110 | 22.06607 | 26117 ft | 405 kts | 112° |
| 2026-05-04 19:28 | 43.20941 | 22.10102 | 25686 ft | 402 kts | 114° |
| 2026-05-04 19:28 | 43.19774 | 22.13574 | 25250 ft | 400 kts | 114° |
| 2026-05-04 19:29 | 43.18616 | 22.17021 | 24824 ft | 397 kts | 114° |
| 2026-05-04 19:29 | 43.17460 | 22.20453 | 24394 ft | 395 kts | 114° |
| 2026-05-04 19:29 | 43.16324 | 22.23823 | 23975 ft | 393 kts | 114° |
| 2026-05-04 19:29 | 43.15180 | 22.27212 | 23543 ft | 391 kts | 114° |
| 2026-05-04 19:30 | 43.14044 | 22.30576 | 23038 ft | 388 kts | 114° |
| 2026-05-04 19:30 | 43.12916 | 22.33917 | 22567 ft | 385 kts | 114° |
| 2026-05-04 19:30 | 43.11795 | 22.37230 | 22091 ft | 382 kts | 114° |
| 2026-05-04 19:30 | 43.10681 | 22.40519 | 21623 ft | 379 kts | 114° |
| 2026-05-04 19:31 | 43.09574 | 22.43777 | 21165 ft | 376 kts | 114° |
| 2026-05-04 19:31 | 43.08475 | 22.47010 | 20708 ft | 373 kts | 114° |
| 2026-05-04 19:31 | 43.07382 | 22.50219 | 20266 ft | 370 kts | 113° |
| 2026-05-04 19:31 | 43.06301 | 22.53394 | 19815 ft | 366 kts | 113° |
| 2026-05-04 19:32 | 43.05233 | 22.56536 | 19479 ft | 361 kts | 113° |
| 2026-05-04 19:32 | 43.04179 | 22.59629 | 19259 ft | 358 kts | 113° |
| 2026-05-04 19:32 | 43.03129 | 22.62697 | 18840 ft | 355 kts | 113° |
| 2026-05-04 19:32 | 43.03067 | 22.62877 | 18807 ft | 355 kts | 113° |
| 2026-05-04 19:33 | 43.02505 | 22.64521 | 18596 ft | 353 kts | 113° |
| 2026-05-04 19:33 | 43.01559 | 22.67234 | 18189 ft | 351 kts | 113° |
| 2026-05-04 19:34 | 43.00525 | 22.70235 | 17743 ft | 348 kts | 113° |
| 2026-05-04 19:34 | 42.99506 | 22.73209 | 17291 ft | 344 kts | 113° |
| 2026-05-04 19:34 | 42.98498 | 22.76156 | 16861 ft | 341 kts | 113° |
| 2026-05-04 19:34 | 42.97400 | 22.79030 | 16426 ft | 339 kts | 119° |
| 2026-05-04 19:35 | 42.96062 | 22.81671 | 15988 ft | 338 kts | 126° |
| 2026-05-04 19:35 | 42.94543 | 22.84110 | 15573 ft | 336 kts | 128° |
| 2026-05-04 19:35 | 42.93030 | 22.86515 | 15155 ft | 333 kts | 128° |
| 2026-05-04 19:35 | 42.91529 | 22.88912 | 14744 ft | 330 kts | 128° |
| 2026-05-04 19:36 | 42.90044 | 22.91285 | 14350 ft | 328 kts | 127° |
| 2026-05-04 19:36 | 42.88593 | 22.93602 | 14129 ft | 325 kts | 127° |
| 2026-05-04 19:36 | 42.87122 | 22.95947 | 14130 ft | 326 kts | 127° |
| 2026-05-04 19:36 | 42.85649 | 22.98288 | 14137 ft | 326 kts | 127° |
| 2026-05-04 19:37 | 42.84171 | 23.00633 | 14005 ft | 324 kts | 127° |
| 2026-05-04 19:37 | 42.82711 | 23.02943 | 13552 ft | 322 kts | 127° |
| 2026-05-04 19:37 | 42.81251 | 23.05249 | 13101 ft | 320 kts | 127° |
| 2026-05-04 19:37 | 42.79799 | 23.07546 | 12678 ft | 319 kts | 127° |
| 2026-05-04 19:38 | 42.78362 | 23.09820 | 12263 ft | 317 kts | 127° |
| 2026-05-04 19:38 | 42.76929 | 23.12082 | 12102 ft | 315 kts | 127° |
| 2026-05-04 19:38 | 42.75494 | 23.14347 | 12115 ft | 317 kts | 127° |
| 2026-05-04 19:38 | 42.74050 | 23.16628 | 12116 ft | 318 kts | 127° |
| 2026-05-04 19:39 | 42.72607 | 23.18904 | 12116 ft | 318 kts | 127° |
| 2026-05-04 19:39 | 42.71163 | 23.21178 | 12121 ft | 318 kts | 127° |
| 2026-05-04 19:39 | 42.69713 | 23.23463 | 12114 ft | 319 kts | 127° |
| 2026-05-04 19:39 | 42.68265 | 23.25743 | 12113 ft | 319 kts | 127° |
| 2026-05-04 19:40 | 42.66817 | 23.28023 | 12111 ft | 319 kts | 127° |
| 2026-05-04 19:40 | 42.65368 | 23.30299 | 12111 ft | 319 kts | 127° |
| 2026-05-04 19:40 | 42.63921 | 23.32587 | 12059 ft | 317 kts | 124° |
| 2026-05-04 19:40 | 42.62714 | 23.35041 | 11654 ft | 311 kts | 114° |
| 2026-05-04 19:41 | 42.61870 | 23.37717 | 11256 ft | 305 kts | 104° |
| 2026-05-04 19:41 | 42.61385 | 23.40492 | 10868 ft | 301 kts | 95° |
| 2026-05-04 19:41 | 42.61197 | 23.43297 | 10483 ft | 298 kts | 91° |
| 2026-05-04 19:41 | 42.61036 | 23.46097 | 10136 ft | 297 kts | 91° |
| 2026-05-04 19:42 | 42.60869 | 23.48876 | 9991 ft | 295 kts | 91° |
| 2026-05-04 19:42 | 42.60699 | 23.51654 | 10003 ft | 296 kts | 90° |
| 2026-05-04 19:42 | 42.60527 | 23.54430 | 9950 ft | 294 kts | 90° |
| 2026-05-04 19:42 | 42.60351 | 23.57194 | 9532 ft | 293 kts | 91° |
| 2026-05-04 19:43 | 42.60174 | 23.59946 | 9105 ft | 293 kts | 91° |
| 2026-05-04 19:43 | 42.59996 | 23.62698 | 8682 ft | 293 kts | 91° |
| 2026-05-04 19:43 | 42.59823 | 23.65414 | 8268 ft | 292 kts | 91° |
| 2026-05-04 19:43 | 42.59649 | 23.68194 | 8003 ft | 291 kts | 91° |
| 2026-05-04 19:44 | 42.59480 | 23.70953 | 7987 ft | 294 kts | 91° |
| 2026-05-04 19:44 | 42.59313 | 23.73724 | 7995 ft | 295 kts | 91° |
| 2026-05-04 19:44 | 42.59148 | 23.76452 | 7990 ft | 295 kts | 91° |
| 2026-05-04 19:44 | 42.58976 | 23.79226 | 7808 ft | 293 kts | 91° |
| 2026-05-04 19:45 | 42.59107 | 23.81938 | 7422 ft | 286 kts | 70° |
| 2026-05-04 19:45 | 42.60104 | 23.84215 | 6994 ft | 282 kts | 43° |
| 2026-05-04 19:45 | 42.61751 | 23.85592 | 6584 ft | 280 kts | 17° |
| 2026-05-04 19:45 | 42.63682 | 23.85820 | 6132 ft | 282 kts | 351° |
| 2026-05-04 19:46 | 42.65471 | 23.84811 | 5983 ft | 283 kts | 324° |
| 2026-05-04 19:46 | 42.66763 | 23.82779 | 5990 ft | 290 kts | 298° |
| 2026-05-04 19:46 | 42.67284 | 23.80128 | 5996 ft | 295 kts | 278° |
| 2026-05-04 19:46 | 42.67455 | 23.77343 | 5998 ft | 296 kts | 276° |
| 2026-05-04 19:47 | 42.67557 | 23.75497 | 5999 ft | 296 kts | 276° |
| 2026-05-04 19:47 | 42.67727 | 23.72704 | 5852 ft | 297 kts | 277° |
| 2026-05-04 19:47 | 42.67905 | 23.69924 | 5492 ft | 294 kts | 277° |
| 2026-05-04 19:47 | 42.68078 | 23.67185 | 5110 ft | 284 kts | 276° |
| 2026-05-04 19:48 | 42.68241 | 23.64574 | 4745 ft | 271 kts | 276° |
| 2026-05-04 19:48 | 42.68397 | 23.62082 | 4378 ft | 260 kts | 276° |
| 2026-05-04 19:48 | 42.68545 | 23.59689 | 4044 ft | 247 kts | 275° |
| 2026-05-04 19:48 | 42.68683 | 23.57466 | 3732 ft | 225 kts | 275° |
| 2026-05-04 19:49 | 42.68809 | 23.55440 | 3418 ft | 206 kts | 274° |
| 2026-05-04 19:49 | 42.68924 | 23.53578 | 3175 ft | 188 kts | 273° |
| 2026-05-04 19:49 | 42.69029 | 23.51888 | 2948 ft | 170 kts | 271° |
| 2026-05-04 19:49 | 42.69121 | 23.50391 | 2732 ft | 152 kts | 272° |
| 2026-05-04 19:50 | 42.69196 | 23.48991 | 2493 ft | 146 kts | 272° |
| 2026-05-04 19:50 | 42.69277 | 23.47637 | 2304 ft | 144 kts | 275° |
| 2026-05-04 19:50 | 42.69365 | 23.46292 | 2175 ft | 142 kts | 274° |
| 2026-05-04 19:50 | 42.69449 | 23.44951 | 1960 ft | 143 kts | 275° |
| 2026-05-04 19:51 | 42.69534 | 23.43637 | 1766 ft | 135 kts | 272° |
| 2026-05-04 19:51 | 42.69600 | 23.42517 | 1745 ft | 100 kts | 275° |
| 2026-05-04 19:51 | 42.69638 | 23.41840 | 1749 ft | 29 kts | 267° |
| 2026-05-04 19:51 | 42.69596 | 23.41581 | 1748 ft | 28 kts | 251° |
| 2026-05-04 19:52 | 42.69527 | 23.41403 | 1743 ft | 19 kts | 240° |
| 2026-05-04 19:52 | 42.69482 | 23.41256 | 1744 ft | 14 kts | 248° |
| 2026-05-04 19:52 | 42.69395 | 23.41195 | 1750 ft | 15 kts | 193° |
| 2026-05-04 19:52 | 42.69287 | 23.41164 | 1746 ft | 17 kts | 192° |
| 2026-05-04 19:53 | 42.69172 | 23.41130 | 1750 ft | 11 kts | 194° |
| 2026-05-04 19:53 | 42.69118 | 23.41051 | 1748 ft | 13 kts | 248° |
| 2026-05-04 19:53 | 42.69084 | 23.40906 | 1747 ft | 15 kts | 252° |
| 2026-05-04 19:53 | 42.69060 | 23.40766 | 1745 ft | 15 kts | 272° |
| 2026-05-04 19:54 | 42.69088 | 23.40617 | 1748 ft | 17 kts | 286° |
| 2026-05-04 19:54 | 42.69120 | 23.40470 | 1741 ft | 11 kts | 287° |
| 2026-05-04 19:54 | 42.69118 | 23.40388 | 1742 ft | 9 kts | 218° |
| 2026-05-04 19:54 | 42.69063 | 23.40364 | 1747 ft | 0 kts | 197° |
| 2026-05-04 19:55 | 42.69061 | 23.40363 | 1749 ft | 0 kts | 197° |